createdAt,value
2023-03-01T00:00:42.218Z,101611.58
2023-03-01T00:02:46.659Z,101613.98
2023-03-01T00:04:51.148Z,101614.72
2023-03-01T00:06:55.545Z,101615.22
2023-03-01T00:08:59.914Z,101616.14
2023-03-01T00:11:04.447Z,101623.98
2023-03-01T00:13:08.976Z,101620.19
2023-03-01T00:15:13.340Z,101620.16
2023-03-01T00:17:17.726Z,101612.14
2023-03-01T00:19:22.245Z,101615.89
2023-03-01T00:21:26.754Z,101607.7
2023-03-01T00:23:31.218Z,101611.55
2023-03-01T00:25:35.647Z,101608.22
2023-03-01T00:27:40.054Z,101608.54
2023-03-01T00:29:44.452Z,101607.48
2023-03-01T00:31:48.981Z,101606.83
2023-03-01T00:33:53.458Z,101602.5
2023-03-01T00:35:58.054Z,101600.57
2023-03-01T00:38:02.570Z,101597.97
2023-03-01T00:40:06.980Z,101591.96
2023-03-01T00:42:11.382Z,101588.17
2023-03-01T00:44:15.779Z,101583.67
2023-03-01T00:46:20.356Z,101578.71
2023-03-01T00:48:24.867Z,101582.22
2023-03-01T00:50:29.263Z,101576.1
2023-03-01T00:52:33.766Z,101578.28
2023-03-01T00:54:38.160Z,101573.89
2023-03-01T00:56:42.548Z,101575.27
2023-03-01T00:58:46.958Z,101573.91
2023-03-01T01:00:51.368Z,101574.66
2023-03-01T01:02:55.929Z,101574.23
2023-03-01T01:05:00.362Z,101576.45
2023-03-01T01:07:04.744Z,101574.44
2023-03-01T01:09:09.161Z,101571.73
2023-03-01T01:11:13.539Z,101570.91
2023-03-01T01:13:17.889Z,101563.2
2023-03-01T01:15:22.411Z,101567.05
2023-03-01T01:17:26.843Z,101573.3
2023-03-01T01:19:31.233Z,101575.82
2023-03-01T01:21:35.702Z,101572.61
2023-03-01T01:23:40.075Z,101565.5
2023-03-01T01:25:44.464Z,101559.83
2023-03-01T01:27:48.847Z,101555.79
2023-03-01T01:29:53.240Z,101557.8
2023-03-01T01:31:57.770Z,101551.53
2023-03-01T01:34:02.327Z,101555.75
2023-03-01T01:36:06.806Z,101552.27
2023-03-01T01:38:11.300Z,101551.17
2023-03-01T01:40:15.697Z,101541.99
2023-03-01T01:42:20.241Z,101538.08
2023-03-01T01:44:24.716Z,101541.75
2023-03-01T01:46:30.128Z,101542.94
2023-03-01T01:48:35.194Z,101543.92
2023-03-01T01:50:39.650Z,101541.84
2023-03-01T01:52:44.066Z,101536.27
2023-03-01T01:54:48.487Z,101534.87
2023-03-01T01:56:52.899Z,101530.55
2023-03-01T01:58:57.296Z,101523.83
2023-03-01T02:01:01.730Z,101525.33
2023-03-01T02:03:06.431Z,101528.44
2023-03-01T02:05:11.181Z,101525.62
2023-03-01T02:07:15.612Z,101525.61
2023-03-01T02:09:20.008Z,101524.2
2023-03-01T02:11:24.413Z,101526.52
2023-03-01T02:13:28.839Z,101526.97
2023-03-01T02:15:33.263Z,101526.66
2023-03-01T02:17:37.667Z,101530.49
2023-03-01T02:19:42.163Z,101528.05
2023-03-01T02:21:46.547Z,101530.94
2023-03-01T02:23:50.995Z,101531.17
2023-03-01T02:25:55.469Z,101527.22
2023-03-01T02:27:59.873Z,101525.31
2023-03-01T02:30:04.335Z,101527.2
2023-03-01T02:32:08.916Z,101525.58
2023-03-01T02:34:13.383Z,101523.76
2023-03-01T02:36:17.793Z,101528.72
2023-03-01T02:38:22.164Z,101529.34
2023-03-01T02:40:26.554Z,101529.66
2023-03-01T02:42:30.951Z,101530.81
2023-03-01T02:44:35.395Z,101531.12
2023-03-01T02:46:39.918Z,101535.25
2023-03-01T02:48:44.382Z,101530.08
2023-03-01T02:50:48.739Z,101528.48
2023-03-01T02:52:53.160Z,101531.97
2023-03-01T02:54:57.580Z,101536.97
2023-03-01T02:57:01.985Z,101534.9
2023-03-01T02:59:06.500Z,101540.54
2023-03-01T03:01:10.982Z,101536.08
2023-03-01T03:03:15.528Z,101537.77
2023-03-01T03:05:20.071Z,101537.53
2023-03-01T03:07:24.581Z,101536.1
2023-03-01T03:09:28.972Z,101530.26
2023-03-01T03:11:33.374Z,101530.45
2023-03-01T03:13:37.882Z,101531.73
2023-03-01T03:15:42.376Z,101534.27
2023-03-01T03:17:47.574Z,101537.17
2023-03-01T03:19:51.931Z,101538.16
2023-03-01T03:21:56.326Z,101533.64
2023-03-01T03:24:00.719Z,101532.19
2023-03-01T03:26:05.117Z,101524.58
2023-03-01T03:28:09.506Z,101521.81
2023-03-01T03:30:14.381Z,101518.45
2023-03-01T03:32:18.954Z,101518.98
2023-03-01T03:34:23.481Z,101514.53
2023-03-01T03:36:28.095Z,101513.75
2023-03-01T03:38:32.838Z,101506.89
2023-03-01T03:40:37.322Z,101510.89
2023-03-01T03:42:41.732Z,101503.04
2023-03-01T03:44:46.126Z,101503.11
2023-03-01T03:46:50.682Z,101504.02
2023-03-01T03:48:55.190Z,101504.21
2023-03-01T03:50:59.607Z,101503.03
2023-03-01T03:53:04.024Z,101495.28
2023-03-01T03:55:08.463Z,101494.4
2023-03-01T03:57:12.874Z,101497.05
2023-03-01T03:59:17.261Z,101496.66
2023-03-01T04:01:21.821Z,101496.14
2023-03-01T04:03:26.279Z,101492.95
2023-03-01T04:05:30.864Z,101491.38
2023-03-01T04:07:35.251Z,101490.01
2023-03-01T04:09:39.646Z,101484.96
2023-03-01T04:11:44.041Z,101488.58
2023-03-01T04:13:48.427Z,101484.24
2023-03-01T04:15:52.863Z,101487.14
2023-03-01T04:17:57.311Z,101487.16
2023-03-01T04:20:01.740Z,101485.7
2023-03-01T04:22:06.174Z,101484.06
2023-03-01T04:24:10.630Z,101481.39
2023-03-01T04:26:26.210Z,101482.52
2023-03-01T04:28:30.605Z,101480.47
2023-03-01T04:30:34.974Z,101478.23
2023-03-01T04:32:39.533Z,101484.22
2023-03-01T04:34:43.975Z,101485.61
2023-03-01T04:36:48.784Z,101480.14
2023-03-01T04:38:53.423Z,101481.36
2023-03-01T04:40:57.843Z,101480.35
2023-03-01T04:43:02.282Z,101480.13
2023-03-01T04:45:06.669Z,101476.3
2023-03-01T04:47:11.116Z,101480.45
2023-03-01T04:49:15.612Z,101482.61
2023-03-01T04:51:20.006Z,101485.16
2023-03-01T04:53:24.450Z,101492.13
2023-03-01T04:55:28.874Z,101492.76
2023-03-01T04:57:33.373Z,101495.47
2023-03-01T04:59:37.803Z,101492
2023-03-01T05:01:42.209Z,101492.12
2023-03-01T05:03:46.752Z,101492.48
2023-03-01T05:05:51.251Z,101494.16
2023-03-01T05:07:55.670Z,101486.66
2023-03-01T05:10:00.098Z,101487.17
2023-03-01T05:12:04.453Z,101487.7
2023-03-01T05:14:08.910Z,101483.5
2023-03-01T05:16:14.110Z,101482.83
2023-03-01T05:18:18.715Z,101483.67
2023-03-01T05:20:23.164Z,101487.66
2023-03-01T05:22:27.557Z,101488.44
2023-03-01T05:24:32.031Z,101488.62
2023-03-01T05:26:36.458Z,101485.84
2023-03-01T05:28:40.894Z,101491.78
2023-03-01T05:30:45.336Z,101488.05
2023-03-01T05:32:49.857Z,101494.7
2023-03-01T05:34:54.303Z,101490.36
2023-03-01T05:36:58.715Z,101493.27
2023-03-01T05:39:03.142Z,101488.33
2023-03-01T05:41:07.514Z,101488.8
2023-03-01T05:43:11.908Z,101488.05
2023-03-01T05:45:16.302Z,101492.77
2023-03-01T05:47:20.726Z,101488.53
2023-03-01T05:49:25.131Z,101493.98
2023-03-01T05:51:29.528Z,101496.47
2023-03-01T05:53:33.962Z,101502.36
2023-03-01T05:55:38.392Z,101498.45
2023-03-01T05:57:42.797Z,101499.54
2023-03-01T05:59:47.207Z,101501.61
2023-03-01T06:01:51.596Z,101500.37
2023-03-01T06:03:55.998Z,101500.86
2023-03-01T06:06:00.424Z,101500.84
2023-03-01T06:08:04.804Z,101501.7
2023-03-01T06:10:09.215Z,101504.06
2023-03-01T06:12:15.038Z,101494.98
2023-03-01T06:14:19.422Z,101492.52
2023-03-01T06:16:23.825Z,101494.5
2023-03-01T06:18:28.223Z,101492.53
2023-03-01T06:20:32.632Z,101486.96
2023-03-01T06:22:37.110Z,101487.33
2023-03-01T06:24:41.466Z,101488.3
2023-03-01T06:26:45.907Z,101482.67
2023-03-01T06:28:50.324Z,101480.97
2023-03-01T06:30:54.841Z,101476.2
2023-03-01T06:32:59.410Z,101476.95
2023-03-01T06:35:03.813Z,101476.4
2023-03-01T06:37:08.332Z,101475.02
2023-03-01T06:39:12.766Z,101473.02
2023-03-01T06:41:17.148Z,101465.86
2023-03-01T06:43:21.571Z,101467.72
2023-03-01T06:45:25.990Z,101464.16
2023-03-01T06:47:30.408Z,101464.85
2023-03-01T06:49:34.797Z,101460.44
2023-03-01T06:51:39.272Z,101459.92
2023-03-01T06:53:43.620Z,101460.8
2023-03-01T06:55:48.010Z,101465.64
2023-03-01T06:57:52.397Z,101464.06
2023-03-01T06:59:56.721Z,101462.38
2023-03-01T07:02:01.480Z,101461.71
2023-03-01T07:04:06.042Z,101468.04
2023-03-01T07:06:10.574Z,101470.22
2023-03-01T07:08:14.975Z,101468.27
2023-03-01T07:10:19.325Z,101473.7
2023-03-01T07:12:23.817Z,101479.05
2023-03-01T07:14:28.245Z,101484.14
2023-03-01T07:16:33.578Z,101493.64
2023-03-01T07:18:38.908Z,101487.38
2023-03-01T07:20:43.325Z,101486.55
2023-03-01T07:22:47.746Z,101484.17
2023-03-01T07:24:52.148Z,101480.63
2023-03-01T07:26:56.631Z,101477.82
2023-03-01T07:29:01.182Z,101474.23
2023-03-01T07:31:05.600Z,101478.21
2023-03-01T07:33:10.245Z,101472.85
2023-03-01T07:35:14.733Z,101476.49
2023-03-01T07:37:19.155Z,101468.09
2023-03-01T07:39:23.555Z,101465.34
2023-03-01T07:41:28.195Z,101461.17
2023-03-01T07:43:32.612Z,101455.13
2023-03-01T07:45:37.142Z,101458.97
2023-03-01T07:47:41.596Z,101459.31
2023-03-01T07:49:46.014Z,101465.48
2023-03-01T07:51:50.426Z,101465.81
2023-03-01T07:53:54.905Z,101453.97
2023-03-01T07:55:59.291Z,101456.38
2023-03-01T07:58:03.806Z,101462.02
2023-03-01T08:00:08.322Z,101462.63
2023-03-01T08:02:13.198Z,101456.29
2023-03-01T08:04:17.630Z,101453.77
2023-03-01T08:06:22.394Z,101454.81
2023-03-01T08:08:26.784Z,101446.78
2023-03-01T08:10:31.189Z,101442.88
2023-03-01T08:12:35.582Z,101434.67
2023-03-01T08:14:40.012Z,101428.06
2023-03-01T08:16:44.523Z,101430.77
2023-03-01T08:18:49.102Z,101432.17
2023-03-01T08:20:53.506Z,101430.3
2023-03-01T08:22:57.943Z,101428.91
2023-03-01T08:25:02.375Z,101430.63
2023-03-01T08:27:06.893Z,101440.44
2023-03-01T08:29:11.437Z,101438.91
2023-03-01T08:31:16.208Z,101439.18
2023-03-01T08:33:20.928Z,101441.73
2023-03-01T08:35:28.673Z,101440.91
2023-03-01T08:37:33.172Z,101437.2
2023-03-01T08:39:37.814Z,101436.23
2023-03-01T08:41:42.307Z,101442.39
2023-03-01T08:43:46.922Z,101437.78
2023-03-01T08:45:51.569Z,101442.42
2023-03-01T08:47:56.082Z,101449.46
2023-03-01T08:50:00.597Z,101451.94
2023-03-01T08:52:05.302Z,101454.81
2023-03-01T08:54:09.832Z,101451.14
2023-03-01T08:56:14.339Z,101444.11
2023-03-01T08:58:18.757Z,101440.09
2023-03-01T09:00:23.215Z,101444.08
2023-03-01T09:02:27.898Z,101445.59
2023-03-01T09:04:32.403Z,101438.79
2023-03-01T09:06:36.821Z,101439.38
2023-03-01T09:08:41.368Z,101436.72
2023-03-01T09:10:45.867Z,101437.84
2023-03-01T09:12:50.291Z,101438.45
2023-03-01T09:14:54.749Z,101440.47
2023-03-01T09:16:59.423Z,101442.75
2023-03-01T09:19:03.936Z,101441.55
2023-03-01T09:21:08.497Z,101437.05
2023-03-01T09:23:12.907Z,101433.8
2023-03-01T09:25:17.289Z,101428.67
2023-03-01T09:27:21.762Z,101430.52
2023-03-01T09:29:26.224Z,101428.53
2023-03-01T09:31:30.759Z,101428.6
2023-03-01T09:33:35.267Z,101424.81
2023-03-01T09:35:39.830Z,101427.88
2023-03-01T09:37:44.425Z,101431.15
2023-03-01T09:39:48.950Z,101428.72
2023-03-01T09:41:53.425Z,101421.82
2023-03-01T09:43:57.968Z,101424.71
2023-03-01T09:46:02.561Z,101421.29
2023-03-01T09:48:07.097Z,101423.26
2023-03-01T09:50:11.544Z,101416.8
2023-03-01T09:52:15.989Z,101420.8
2023-03-01T09:54:20.418Z,101423.52
2023-03-01T09:56:24.850Z,101416.35
2023-03-01T09:58:29.277Z,101413.83
2023-03-01T10:00:33.678Z,101420.21
2023-03-01T10:02:38.230Z,101419.95
2023-03-01T10:04:42.744Z,101416.84
2023-03-01T10:06:47.377Z,101416.96
2023-03-01T10:08:51.802Z,101417.78
2023-03-01T10:10:56.231Z,101417.63
2023-03-01T10:13:00.816Z,101417.66
2023-03-01T10:15:05.244Z,101409.13
2023-03-01T10:17:09.744Z,101412.56
2023-03-01T10:19:14.196Z,101409.77
2023-03-01T10:21:18.785Z,101406.27
2023-03-01T10:23:23.241Z,101403.66
2023-03-01T10:25:27.614Z,101400.25
2023-03-01T10:27:32.039Z,101396.22
2023-03-01T10:29:36.557Z,101393.23
2023-03-01T10:31:41.068Z,101385.36
2023-03-01T10:33:45.610Z,101391.33
2023-03-01T10:35:50.068Z,101387.23
2023-03-01T10:37:54.585Z,101384.09
2023-03-01T10:39:59.044Z,101389.71
2023-03-01T10:42:03.484Z,101382.69
2023-03-01T10:44:08.190Z,101380.64
2023-03-01T10:46:12.803Z,101381.67
2023-03-01T10:48:17.317Z,101382.08
2023-03-01T10:50:21.882Z,101370.36
2023-03-01T10:52:26.402Z,101371.12
2023-03-01T10:54:30.880Z,101370.55
2023-03-01T10:56:35.291Z,101370.61
2023-03-01T10:58:39.908Z,101368.31
2023-03-01T11:00:44.367Z,101368.08
2023-03-01T11:02:48.750Z,101371.55
2023-03-01T11:04:53.293Z,101368.08
2023-03-01T11:06:57.864Z,101364.11
2023-03-01T11:09:02.409Z,101359.38
2023-03-01T11:11:06.935Z,101359.83
2023-03-01T11:13:11.389Z,101350.39
2023-03-01T11:15:15.956Z,101349.59
2023-03-01T11:17:20.496Z,101347.74
2023-03-01T11:19:24.932Z,101353.85
2023-03-01T11:21:29.709Z,101352.33
2023-03-01T11:23:34.736Z,101353.51
2023-03-01T11:25:39.224Z,101350.5
2023-03-01T11:27:43.644Z,101348.14
2023-03-01T11:29:50.367Z,101345.58
2023-03-01T11:31:59.240Z,101351.69
2023-03-01T11:34:04.026Z,101349.88
2023-03-01T11:36:08.757Z,101350.11
2023-03-01T11:38:13.364Z,101345.4
2023-03-01T11:40:17.862Z,101341.05
2023-03-01T11:42:22.399Z,101343.09
2023-03-01T11:44:26.843Z,101342.91
2023-03-01T11:46:31.642Z,101348.46
2023-03-01T11:48:50.631Z,101343.8
2023-03-01T11:50:55.041Z,101341.06
2023-03-01T11:52:59.455Z,101341.44
2023-03-01T11:55:03.955Z,101336.6
2023-03-01T11:57:08.477Z,101335.91
2023-03-01T11:59:12.990Z,101330.89
2023-03-01T12:01:17.518Z,101325.33
2023-03-01T12:03:21.980Z,101323.4
2023-03-01T12:05:26.396Z,101327.23
2023-03-01T12:07:30.903Z,101327.23
2023-03-01T12:09:35.910Z,101324.24
2023-03-01T12:11:40.679Z,101324.08
2023-03-01T12:13:45.912Z,101325.77
2023-03-01T12:15:50.463Z,101317.53
2023-03-01T12:17:54.884Z,101310.72
2023-03-01T12:19:59.345Z,101307.34
2023-03-01T12:22:03.798Z,101312.41
2023-03-01T12:24:08.265Z,101307.95
2023-03-01T12:26:15.084Z,101304.73
2023-03-01T12:28:19.572Z,101305.56
2023-03-01T12:30:23.977Z,101303.88
2023-03-01T12:32:31.023Z,101302.34
2023-03-01T12:34:38.923Z,101299.96
2023-03-01T12:36:43.342Z,101302.81
2023-03-01T12:38:47.822Z,101303.64
2023-03-01T12:40:52.238Z,101301.21
2023-03-01T12:42:56.649Z,101291.77
2023-03-01T12:45:01.183Z,101290.34
2023-03-01T12:47:05.639Z,101285.57
2023-03-01T12:49:10.128Z,101284.42
2023-03-01T12:51:14.653Z,101280.38
2023-03-01T12:53:19.118Z,101275.36
2023-03-01T12:55:23.576Z,101276.03
2023-03-01T12:57:28.036Z,101272.8
2023-03-01T12:59:32.527Z,101270.39
2023-03-01T13:01:37.024Z,101267.28
2023-03-01T13:03:41.675Z,101266.03
2023-03-01T13:05:46.273Z,101268.96
2023-03-01T13:07:50.794Z,101268.08
2023-03-01T13:09:55.246Z,101266.48
2023-03-01T13:12:00.672Z,101261.03
2023-03-01T13:14:09.610Z,101259.16
2023-03-01T13:16:16.848Z,101259.39
2023-03-01T13:18:21.464Z,101260.76
2023-03-01T13:20:25.922Z,101264.88
2023-03-01T13:22:30.389Z,101256.8
2023-03-01T13:24:34.791Z,101257.79
2023-03-01T13:26:39.205Z,101260.81
2023-03-01T13:28:43.690Z,101256.22
2023-03-01T13:30:48.118Z,101256.92
2023-03-01T13:32:52.871Z,101260.81
2023-03-01T13:34:57.510Z,101257.26
2023-03-01T13:37:01.904Z,101253.2
2023-03-01T13:39:06.416Z,101253.16
2023-03-01T13:41:10.962Z,101256.58
2023-03-01T13:43:15.418Z,101252.63
2023-03-01T13:45:19.921Z,101255.95
2023-03-01T13:47:24.433Z,101248.16
2023-03-01T13:49:45.561Z,101247.69
2023-03-01T13:51:50.521Z,101235.57
2023-03-01T13:53:54.969Z,101234.01
2023-03-01T13:56:00.895Z,101232.52
2023-03-01T13:58:05.347Z,101228.59
2023-03-01T14:00:10.121Z,101229.19
2023-03-01T14:02:14.688Z,101222.91
2023-03-01T14:04:19.204Z,101221.34
2023-03-01T14:06:23.610Z,101215.23
2023-03-01T14:08:28.138Z,101209.66
2023-03-01T14:10:32.645Z,101211.17
2023-03-01T14:12:37.170Z,101210.73
2023-03-01T14:14:41.615Z,101208.16
2023-03-01T14:16:47.650Z,101203.5
2023-03-01T14:18:52.164Z,101202.58
2023-03-01T14:21:02.667Z,101198.54
2023-03-01T14:23:07.782Z,101199.8
2023-03-01T14:25:12.643Z,101196.23
2023-03-01T14:27:20.687Z,101191.64
2023-03-01T14:29:28.927Z,101186.84
2023-03-01T14:31:53.836Z,101187.48
2023-03-01T14:34:03.517Z,101183.05
2023-03-01T14:36:11.224Z,101184.63
2023-03-01T14:38:16.412Z,101178.39
2023-03-01T14:40:25.659Z,101172.52
2023-03-01T14:42:35.338Z,101168.94
2023-03-01T14:44:42.005Z,101168.66
2023-03-01T14:46:48.761Z,101160.54
2023-03-01T14:48:55.324Z,101155.86
2023-03-01T14:51:07.030Z,101169.53
2023-03-01T14:53:16.275Z,101170.39
2023-03-01T14:55:22.875Z,101164.54
2023-03-01T14:57:27.915Z,101152.34
2023-03-01T14:59:36.134Z,101150.73
2023-03-01T15:01:41.877Z,101153.39
2023-03-01T15:03:47.634Z,101159.23
2023-03-01T15:05:52.851Z,101161.08
2023-03-01T15:08:00.884Z,101161.84
2023-03-01T15:10:11.121Z,101161.5
2023-03-01T15:12:21.591Z,101159.8
2023-03-01T15:14:29.111Z,101159.39
2023-03-01T15:16:34.672Z,101157.41
2023-03-01T15:18:40.897Z,101157.38
2023-03-01T15:20:47.242Z,101159.43
2023-03-01T15:22:54.198Z,101162.84
2023-03-01T15:25:02.444Z,101161.92
2023-03-01T15:27:10.471Z,101163.67
2023-03-01T15:29:15.172Z,101161.52
2023-03-01T15:31:21.380Z,101167.16
2023-03-01T15:33:26.872Z,101163.4
2023-03-01T15:35:33.920Z,101156.16
2023-03-01T15:37:38.586Z,101153.42
2023-03-01T15:39:43.756Z,101155.72
2023-03-01T15:41:50.454Z,101153.94
2023-03-01T15:44:00.106Z,101150.86
2023-03-01T15:46:06.980Z,101152.2
2023-03-01T15:48:15.358Z,101150.18
2023-03-01T15:50:22.404Z,101151.07
2023-03-01T15:52:28.441Z,101157.22
2023-03-01T15:54:36.403Z,101158.28
2023-03-01T15:56:46.287Z,101162.83
2023-03-01T15:58:51.015Z,101165.77
2023-03-01T16:01:02.789Z,101168.39
2023-03-01T16:03:11.738Z,101167.67
2023-03-01T16:05:22.384Z,101169.66
2023-03-01T16:07:32.384Z,101174.48
2023-03-01T16:09:41.165Z,101174.65
2023-03-01T16:11:48.987Z,101176.48
2023-03-01T16:13:58.790Z,101176.97
2023-03-01T16:16:07.664Z,101180.42
2023-03-01T16:18:14.683Z,101177.31
2023-03-01T16:20:32.212Z,101177.86
2023-03-01T16:22:40.705Z,101180.08
2023-03-01T16:24:46.265Z,101176.25
2023-03-01T16:26:52.628Z,101175.67
2023-03-01T16:29:02.325Z,101175.39
2023-03-01T16:31:11.003Z,101180.73
2023-03-01T16:33:34.919Z,101175.73
2023-03-01T16:35:42.859Z,101177.92
2023-03-01T16:37:49.555Z,101178.3
2023-03-01T16:39:58.993Z,101182.06
2023-03-01T16:42:04.935Z,101183.22
2023-03-01T16:44:13.228Z,101187.91
2023-03-01T16:46:22.056Z,101185.17
2023-03-01T16:48:30.071Z,101193.3
2023-03-01T16:50:35.095Z,101194.26
2023-03-01T16:53:04.803Z,101198.44
2023-03-01T16:55:13.323Z,101198.36
2023-03-01T16:57:18.479Z,101200.07
2023-03-01T16:59:27.792Z,101201.81
2023-03-01T17:01:36.237Z,101201.5
2023-03-01T17:03:45.768Z,101201.72
2023-03-01T17:05:52.684Z,101202.47
2023-03-01T17:08:00.222Z,101205.27
2023-03-01T17:10:05.063Z,101201.06
2023-03-01T17:12:11.222Z,101200.14
2023-03-01T17:14:17.011Z,101203.66
2023-03-01T17:16:25.258Z,101206.67
2023-03-01T17:18:31.067Z,101205.06
2023-03-01T17:20:37.753Z,101209.75
2023-03-01T17:22:43.271Z,101208.77
2023-03-01T17:24:53.477Z,101209.78
2023-03-01T17:26:58.561Z,101211.36
2023-03-01T17:29:03.922Z,101208.97
2023-03-01T17:31:08.966Z,101208.08
2023-03-01T17:33:14.383Z,101204.42
2023-03-01T17:35:21.530Z,101206.71
2023-03-01T17:37:27.062Z,101203.47
2023-03-01T17:39:33.509Z,101207.37
2023-03-01T17:41:40.174Z,101205.55
2023-03-01T17:43:45.927Z,101201.14
2023-03-01T17:45:51.192Z,101198.98
2023-03-01T17:47:57.559Z,101205.38
2023-03-01T17:50:03.827Z,101202.82
2023-03-01T17:52:09.300Z,101200.05
2023-03-01T17:54:14.341Z,101200.49
2023-03-01T17:56:19.346Z,101198.55
2023-03-01T17:58:24.209Z,101201.52
2023-03-01T18:00:31.126Z,101194.78
2023-03-01T18:02:36.149Z,101198.98
2023-03-01T18:04:41.320Z,101197.62
2023-03-01T18:06:48.240Z,101197.96
2023-03-01T18:08:54.265Z,101201.34
2023-03-01T18:11:01.982Z,101201.83
2023-03-01T18:13:09.793Z,101209.45
2023-03-01T18:15:20.989Z,101205.83
2023-03-01T18:17:26.987Z,101210.44
2023-03-01T18:19:32.617Z,101209.92
2023-03-01T18:21:39.105Z,101204.8
2023-03-01T18:23:46.079Z,101196.77
2023-03-01T18:25:51.122Z,101194.78
2023-03-01T18:27:57.543Z,101205.86
2023-03-01T18:30:05.882Z,101203.8
2023-03-01T18:32:11.700Z,101202.28
2023-03-01T18:34:16.492Z,101202.05
2023-03-01T18:36:23.129Z,101201.34
2023-03-01T18:38:29.759Z,101201.63
2023-03-01T18:40:38.322Z,101203.65
2023-03-01T18:42:45.986Z,101211.47
2023-03-01T18:44:53.646Z,101214.26
2023-03-01T18:47:00.287Z,101205.63
2023-03-01T18:49:06.934Z,101201.85
2023-03-01T18:51:13.878Z,101187.94
2023-03-01T18:53:18.879Z,101184.09
2023-03-01T18:55:29.056Z,101180.77
2023-03-01T18:57:33.828Z,101178.5
2023-03-01T18:59:40.529Z,101176.96
2023-03-01T19:01:49.090Z,101175.15
2023-03-01T19:03:54.627Z,101172.97
2023-03-01T19:05:59.683Z,101176.23
2023-03-01T19:08:06.903Z,101172.31
2023-03-01T19:10:12.307Z,101172.77
2023-03-01T19:12:19.219Z,101167.27
2023-03-01T19:14:24.813Z,101167
2023-03-01T19:16:30.273Z,101166.48
2023-03-01T19:18:36.596Z,101166.03
2023-03-01T19:20:50.753Z,101171.74
2023-03-01T19:23:07.343Z,101171.95
2023-03-01T19:25:11.934Z,101174.75
2023-03-01T19:27:17.141Z,101178.61
2023-03-01T19:29:21.745Z,101174.58
2023-03-01T19:31:27.168Z,101171.06
2023-03-01T19:33:34.393Z,101180.7
2023-03-01T19:35:41.309Z,101182.44
2023-03-01T19:37:45.917Z,101180.99
2023-03-01T19:39:50.873Z,101179.65
2023-03-01T19:41:57.627Z,101186.08
2023-03-01T19:44:02.386Z,101172.84
2023-03-01T19:46:11.490Z,101167.5
2023-03-01T19:48:18.075Z,101172.72
2023-03-01T19:50:23.025Z,101172.38
2023-03-01T19:52:29.000Z,101171.48
2023-03-01T19:54:37.259Z,101179.45
2023-03-01T19:56:46.062Z,101185.9
2023-03-01T19:58:50.794Z,101174.38
2023-03-01T20:00:59.074Z,101182.52
2023-03-01T20:03:07.143Z,101181.33
2023-03-01T20:05:17.249Z,101180.2
2023-03-01T20:07:22.687Z,101181.03
2023-03-01T20:09:31.025Z,101186.13
2023-03-01T20:11:36.831Z,101187.22
2023-03-01T20:13:41.433Z,101188.22
2023-03-01T20:15:46.245Z,101182.47
2023-03-01T20:17:52.939Z,101189.38
2023-03-01T20:20:01.898Z,101183.91
2023-03-01T20:22:10.021Z,101178.07
2023-03-01T20:24:16.772Z,101190.44
2023-03-01T20:26:22.150Z,101185.63
2023-03-01T20:28:36.572Z,101184.33
2023-03-01T20:30:42.389Z,101181.08
2023-03-01T20:33:07.874Z,101172.7
2023-03-01T20:35:13.038Z,101174.14
2023-03-01T20:37:20.498Z,101171.33
2023-03-01T20:39:27.219Z,101171.27
2023-03-01T20:41:31.921Z,101170.79
2023-03-01T20:43:37.552Z,101164.02
2023-03-01T20:45:44.597Z,101168.4
2023-03-01T20:47:49.310Z,101170.24
2023-03-01T20:49:54.106Z,101145.47
2023-03-01T20:52:00.978Z,101136.75
2023-03-01T20:54:06.350Z,101146.97
2023-03-01T20:56:14.815Z,101160.27
2023-03-01T20:58:21.787Z,101164.53
2023-03-01T21:00:26.575Z,101166.34
2023-03-01T21:02:33.693Z,101167.33
2023-03-01T21:04:38.772Z,101167.91
2023-03-01T21:06:44.681Z,101167.36
2023-03-01T21:08:50.860Z,101173.25
2023-03-01T21:10:55.895Z,101174.55
2023-03-01T21:13:02.190Z,101163.61
2023-03-01T21:15:07.715Z,101169.52
2023-03-01T21:17:18.002Z,101169.32
2023-03-01T21:19:27.054Z,101172.8
2023-03-01T21:21:35.307Z,101175.23
2023-03-01T21:23:40.497Z,101177.86
2023-03-01T21:25:47.322Z,101173.48
2023-03-01T21:27:52.076Z,101174.58
2023-03-01T21:29:57.135Z,101164.94
2023-03-01T21:32:07.126Z,101166.27
2023-03-01T21:34:11.942Z,101164.28
2023-03-01T21:36:16.704Z,101165.34
2023-03-01T21:38:25.281Z,101163.98
2023-03-01T21:40:32.179Z,101158.84
2023-03-01T21:42:36.902Z,101160.19
2023-03-01T21:44:42.996Z,101157.75
2023-03-01T21:46:48.072Z,101158.75
2023-03-01T21:48:56.166Z,101154.41
2023-03-01T21:51:01.754Z,101156.73
2023-03-01T21:53:08.202Z,101153.52
2023-03-01T21:55:13.980Z,101151.8
2023-03-01T21:57:19.027Z,101153.41
2023-03-01T21:59:23.752Z,101153.55
2023-03-01T22:01:29.908Z,101155.63
2023-03-01T22:03:35.884Z,101158.55
2023-03-01T22:05:43.636Z,101155.13
2023-03-01T22:07:49.319Z,101158.84
2023-03-01T22:09:53.938Z,101157.96
2023-03-01T22:12:00.349Z,101153.79
2023-03-01T22:14:07.393Z,101154.98
2023-03-01T22:16:13.171Z,101155.3
2023-03-01T22:18:18.712Z,101153.78
2023-03-01T22:20:24.469Z,101152.07
2023-03-01T22:22:31.179Z,101148.78
2023-03-01T22:24:35.995Z,101149.77
2023-03-01T22:26:41.448Z,101148.88
2023-03-01T22:28:46.741Z,101147.99
2023-03-01T22:30:57.869Z,101144.26
2023-03-01T22:33:04.284Z,101144.03
2023-03-01T22:35:10.557Z,101137.91
2023-03-01T22:37:16.085Z,101131.97
2023-03-01T22:39:20.511Z,101129.9
2023-03-01T22:41:24.915Z,101129.3
2023-03-01T22:43:29.325Z,101142.16
2023-03-01T22:45:33.902Z,101143.86
2023-03-01T22:47:38.633Z,101143.02
2023-03-01T22:49:43.244Z,101145.3
2023-03-01T22:51:47.931Z,101143.52
2023-03-01T22:53:52.716Z,101145.79
2023-03-01T22:55:57.202Z,101152.72
2023-03-01T22:58:02.032Z,101149.34
2023-03-01T23:00:06.841Z,101159.55
2023-03-01T23:02:11.574Z,101150.03
2023-03-01T23:04:17.559Z,101154.65
2023-03-01T23:06:22.068Z,101150.16
2023-03-01T23:08:26.498Z,101152.94
2023-03-01T23:10:31.984Z,101152.72
2023-03-01T23:12:36.534Z,101153.98
2023-03-01T23:14:41.089Z,101154.81
2023-03-01T23:16:46.100Z,101150.2
2023-03-01T23:18:50.930Z,101143.27
2023-03-01T23:20:55.480Z,101146.28
2023-03-01T23:22:59.860Z,101150.98
2023-03-01T23:25:04.254Z,101149.92
2023-03-01T23:27:08.895Z,101154.52
2023-03-01T23:29:13.458Z,101151.18
2023-03-01T23:31:18.045Z,101154.05
2023-03-01T23:33:22.679Z,101151.88
2023-03-01T23:35:27.195Z,101158.39
2023-03-01T23:37:31.791Z,101159.69
2023-03-01T23:39:36.365Z,101159.2
2023-03-01T23:41:40.866Z,101155.89
2023-03-01T23:43:45.640Z,101151.2
2023-03-01T23:45:50.324Z,101153.11
2023-03-01T23:47:55.022Z,101155.59
2023-03-01T23:49:59.681Z,101155.73
2023-03-01T23:52:04.103Z,101159.03
2023-03-01T23:54:08.589Z,101150.06
2023-03-01T23:56:13.079Z,101155.34